sensor_id;sensor_type;location;lat;lon;timestamp;pressure;altitude;pressure_sealevel;temperature;humidity
50356;BME280;36264;51.296;-0.602;2023-05-22T00:01:12;101762.06;;;17.05;49.48
50356;BME280;36264;51.296;-0.602;2023-05-22T00:03:39;101755.03;;;17.06;49.39
50356;BME280;36264;51.296;-0.602;2023-05-22T00:06:05;101762.91;;;17.06;49.68
50356;BME280;36264;51.296;-0.602;2023-05-22T00:08:34;101754.13;;;17.07;49.46
50356;BME280;36264;51.296;-0.602;2023-05-22T00:11:00;101761.94;;;17.08;49.51
50356;BME280;36264;51.296;-0.602;2023-05-22T00:13:25;101759.03;;;17.14;49.44
50356;BME280;36264;51.296;-0.602;2023-05-22T00:15:52;101760.56;;;17.20;49.51
50356;BME280;36264;51.296;-0.602;2023-05-22T00:18:17;101754.47;;;17.19;49.46
50356;BME280;36264;51.296;-0.602;2023-05-22T00:20:43;101757.81;;;17.23;49.71
50356;BME280;36264;51.296;-0.602;2023-05-22T00:23:11;101755.88;;;17.27;49.58
50356;BME280;36264;51.296;-0.602;2023-05-22T00:25:37;101755.03;;;17.26;49.66
50356;BME280;36264;51.296;-0.602;2023-05-22T00:28:02;101739.22;;;17.28;50.02
50356;BME280;36264;51.296;-0.602;2023-05-22T00:30:28;101753.25;;;17.27;50.02
50356;BME280;36264;51.296;-0.602;2023-05-22T00:32:54;101752.56;;;17.23;50.32
50356;BME280;36264;51.296;-0.602;2023-05-22T00:35:20;101743.91;;;17.21;50.25
50356;BME280;36264;51.296;-0.602;2023-05-22T00:37:45;101734.50;;;17.15;50.28
50356;BME280;36264;51.296;-0.602;2023-05-22T00:40:12;101737.06;;;17.17;50.27
50356;BME280;36264;51.296;-0.602;2023-05-22T00:42:37;101734.44;;;17.17;50.25
50356;BME280;36264;51.296;-0.602;2023-05-22T00:45:04;101732.66;;;17.17;50.05
50356;BME280;36264;51.296;-0.602;2023-05-22T00:47:31;101733.59;;;17.16;50.21
50356;BME280;36264;51.296;-0.602;2023-05-22T00:49:57;101727.75;;;17.10;50.57
50356;BME280;36264;51.296;-0.602;2023-05-22T00:52:22;101733.13;;;17.07;50.40
50356;BME280;36264;51.296;-0.602;2023-05-22T00:54:49;101737.38;;;17.09;50.48
50356;BME280;36264;51.296;-0.602;2023-05-22T00:57:16;101733.13;;;17.07;50.41
50356;BME280;36264;51.296;-0.602;2023-05-22T00:59:42;101729.00;;;17.01;50.96
50356;BME280;36264;51.296;-0.602;2023-05-22T01:02:08;101733.72;;;16.93;51.04
50356;BME280;36264;51.296;-0.602;2023-05-22T01:04:33;101726.25;;;16.82;51.33
50356;BME280;36264;51.296;-0.602;2023-05-22T01:06:59;101724.06;;;16.71;51.66
50356;BME280;36264;51.296;-0.602;2023-05-22T01:09:27;101726.22;;;16.61;52.09
50356;BME280;36264;51.296;-0.602;2023-05-22T01:12:00;101733.56;;;16.53;52.35
50356;BME280;36264;51.296;-0.602;2023-05-22T01:14:32;101727.19;;;16.37;52.59
50356;BME280;36264;51.296;-0.602;2023-05-22T01:31:06;101716.31;;;15.80;54.11
50356;BME280;36264;51.296;-0.602;2023-05-22T01:33:42;101720.13;;;15.69;54.25
50356;BME280;36264;51.296;-0.602;2023-05-22T01:36:11;101717.84;;;15.60;54.23
50356;BME280;36264;51.296;-0.602;2023-05-22T01:38:40;101714.56;;;15.55;54.32
50356;BME280;36264;51.296;-0.602;2023-05-22T01:41:06;101718.41;;;15.45;54.66
50356;BME280;36264;51.296;-0.602;2023-05-22T01:43:32;101703.56;;;15.45;54.74
50356;BME280;36264;51.296;-0.602;2023-05-22T01:45:58;101714.78;;;15.49;54.94
50356;BME280;36264;51.296;-0.602;2023-05-22T01:48:23;101711.19;;;15.51;55.02
50356;BME280;36264;51.296;-0.602;2023-05-22T01:50:50;101702.13;;;15.60;55.02
50356;BME280;36264;51.296;-0.602;2023-05-22T01:56:19;101709.53;;;15.72;55.05
50356;BME280;36264;51.296;-0.602;2023-05-22T01:59:03;101700.66;;;15.78;55.29
50356;BME280;36264;51.296;-0.602;2023-05-22T02:01:35;101703.06;;;15.83;54.99
50356;BME280;36264;51.296;-0.602;2023-05-22T02:04:02;101714.25;;;15.88;54.96
50356;BME280;36264;51.296;-0.602;2023-05-22T02:06:30;101703.53;;;15.94;55.07
50356;BME280;36264;51.296;-0.602;2023-05-22T02:08:58;101696.41;;;15.98;55.17
50356;BME280;36264;51.296;-0.602;2023-05-22T02:11:26;101703.34;;;15.99;54.97
50356;BME280;36264;51.296;-0.602;2023-05-22T02:13:53;101702.50;;;15.98;55.53
50356;BME280;36264;51.296;-0.602;2023-05-22T02:16:19;101696.13;;;16.05;55.31
50356;BME280;36264;51.296;-0.602;2023-05-22T02:18:46;101687.31;;;16.06;55.36
50356;BME280;36264;51.296;-0.602;2023-05-22T02:21:12;101693.25;;;16.11;54.81
50356;BME280;36264;51.296;-0.602;2023-05-22T02:23:37;101698.19;;;16.19;54.23
50356;BME280;36264;51.296;-0.602;2023-05-22T02:26:03;101697.94;;;16.25;54.64
50356;BME280;36264;51.296;-0.602;2023-05-22T02:28:29;101701.38;;;16.27;54.73
50356;BME280;36264;51.296;-0.602;2023-05-22T02:30:54;101695.94;;;16.32;54.28
50356;BME280;36264;51.296;-0.602;2023-05-22T02:33:20;101693.94;;;16.39;54.48
50356;BME280;36264;51.296;-0.602;2023-05-22T02:35:45;101692.75;;;16.46;53.97
50356;BME280;36264;51.296;-0.602;2023-05-22T02:38:11;101692.44;;;16.54;54.06
50356;BME280;36264;51.296;-0.602;2023-05-22T02:40:36;101696.59;;;16.59;53.91
50356;BME280;36264;51.296;-0.602;2023-05-22T02:43:02;101691.16;;;16.64;54.01
50356;BME280;36264;51.296;-0.602;2023-05-22T02:45:28;101689.25;;;16.67;53.86
50356;BME280;36264;51.296;-0.602;2023-05-22T02:47:53;101696.41;;;16.64;53.92
50356;BME280;36264;51.296;-0.602;2023-05-22T02:50:19;101696.53;;;16.61;54.22
50356;BME280;36264;51.296;-0.602;2023-05-22T02:52:44;101701.03;;;16.57;54.04
50356;BME280;36264;51.296;-0.602;2023-05-22T02:55:10;101698.63;;;16.53;54.38
50356;BME280;36264;51.296;-0.602;2023-05-22T02:57:35;101699.59;;;16.50;54.72
50356;BME280;36264;51.296;-0.602;2023-05-22T03:00:01;101700.56;;;16.47;54.42
50356;BME280;36264;51.296;-0.602;2023-05-22T03:02:27;101703.00;;;16.52;54.39
50356;BME280;36264;51.296;-0.602;2023-05-22T03:04:54;101697.69;;;16.54;54.34
50356;BME280;36264;51.296;-0.602;2023-05-22T03:07:19;101695.84;;;16.56;54.62
50356;BME280;36264;51.296;-0.602;2023-05-22T03:09:45;101695.84;;;16.56;54.62
50356;BME280;36264;51.296;-0.602;2023-05-22T03:12:11;101696.84;;;16.53;54.76
50356;BME280;36264;51.296;-0.602;2023-05-22T03:14:36;101690.38;;;16.40;55.03
50356;BME280;36264;51.296;-0.602;2023-05-22T03:17:02;101698.69;;;16.29;55.20
50356;BME280;36264;51.296;-0.602;2023-05-22T03:19:28;101700.72;;;16.21;55.36
50356;BME280;36264;51.296;-0.602;2023-05-22T03:21:53;101697.44;;;16.16;55.55
50356;BME280;36264;51.296;-0.602;2023-05-22T03:24:18;101688.03;;;16.11;56.03
50356;BME280;36264;51.296;-0.602;2023-05-22T03:26:44;101691.66;;;16.07;56.31
50356;BME280;36264;51.296;-0.602;2023-05-22T03:29:09;101689.22;;;16.03;56.13
50356;BME280;36264;51.296;-0.602;2023-05-22T03:31:34;101694.69;;;15.97;56.34
50356;BME280;36264;51.296;-0.602;2023-05-22T03:34:00;101690.56;;;15.91;56.35
50356;BME280;36264;51.296;-0.602;2023-05-22T03:36:25;101686.34;;;15.87;56.44
50356;BME280;36264;51.296;-0.602;2023-05-22T03:38:51;101682.13;;;15.83;56.51
50356;BME280;36264;51.296;-0.602;2023-05-22T03:41:17;101685.66;;;15.82;56.81
50356;BME280;36264;51.296;-0.602;2023-05-22T03:43:42;101682.13;;;15.83;56.76
50356;BME280;36264;51.296;-0.602;2023-05-22T03:46:08;101677.75;;;15.83;57.04
50356;BME280;36264;51.296;-0.602;2023-05-22T03:48:37;101683.72;;;15.87;57.06
50356;BME280;36264;51.296;-0.602;2023-05-22T03:51:02;101678.31;;;15.91;56.90
50356;BME280;36264;51.296;-0.602;2023-05-22T03:53:28;101685.19;;;15.94;56.80
50356;BME280;36264;51.296;-0.602;2023-05-22T03:55:53;101680.88;;;15.93;56.75
50356;BME280;36264;51.296;-0.602;2023-05-22T03:58:19;101682.47;;;15.97;56.92
50356;BME280;36264;51.296;-0.602;2023-05-22T04:00:44;101676.97;;;16.03;56.59
50356;BME280;36264;51.296;-0.602;2023-05-22T04:03:10;101684.69;;;16.06;56.65
50356;BME280;36264;51.296;-0.602;2023-05-22T04:05:37;101677.72;;;16.07;56.61
50356;BME280;36264;51.296;-0.602;2023-05-22T04:08:03;101688.06;;;16.10;56.54
50356;BME280;36264;51.296;-0.602;2023-05-22T04:10:28;101681.84;;;16.12;56.46
50356;BME280;36264;51.296;-0.602;2023-05-22T04:12:53;101679.16;;;16.14;56.45
50356;BME280;36264;51.296;-0.602;2023-05-22T04:15:19;101688.50;;;16.21;56.38
50356;BME280;36264;51.296;-0.602;2023-05-22T04:17:46;101684.94;;;16.22;56.39
50356;BME280;36264;51.296;-0.602;2023-05-22T04:20:12;101685.75;;;16.24;56.08
50356;BME280;36264;51.296;-0.602;2023-05-22T04:22:38;101688.09;;;16.32;56.16
50356;BME280;36264;51.296;-0.602;2023-05-22T04:25:04;101684.34;;;16.38;55.82
50356;BME280;36264;51.296;-0.602;2023-05-22T04:27:29;101691.25;;;16.40;56.01
50356;BME280;36264;51.296;-0.602;2023-05-22T04:29:55;101691.06;;;16.45;55.70
50356;BME280;36264;51.296;-0.602;2023-05-22T04:32:20;101691.13;;;16.43;55.87
50356;BME280;36264;51.296;-0.602;2023-05-22T04:34:48;101690.75;;;16.53;55.70
50356;BME280;36264;51.296;-0.602;2023-05-22T04:37:17;101696.78;;;16.55;55.75
50356;BME280;36264;51.296;-0.602;2023-05-22T04:39:44;101684.50;;;16.55;55.80
50356;BME280;36264;51.296;-0.602;2023-05-22T04:42:13;101688.84;;;16.56;55.59
50356;BME280;36264;51.296;-0.602;2023-05-22T04:44:40;101685.50;;;16.53;55.60
50356;BME280;36264;51.296;-0.602;2023-05-22T04:47:08;101693.16;;;16.57;55.69
50356;BME280;36264;51.296;-0.602;2023-05-22T04:49:39;101687.06;;;16.57;55.73
50356;BME280;36264;51.296;-0.602;2023-05-22T04:52:04;101688.06;;;16.54;56.01
50356;BME280;36264;51.296;-0.602;2023-05-22T04:54:31;101690.53;;;16.57;55.69
50356;BME280;36264;51.296;-0.602;2023-05-22T04:56:56;101690.41;;;16.60;55.50
50356;BME280;36264;51.296;-0.602;2023-05-22T04:59:22;101684.97;;;16.65;55.42
50356;BME280;36264;51.296;-0.602;2023-05-22T05:01:50;101692.78;;;16.66;55.34
50356;BME280;36264;51.296;-0.602;2023-05-22T05:04:16;101691.94;;;16.66;55.45
50356;BME280;36264;51.296;-0.602;2023-05-22T05:06:42;101693.78;;;16.64;55.55
50356;BME280;36264;51.296;-0.602;2023-05-22T05:09:07;101698.91;;;16.67;55.53
50356;BME280;36264;51.296;-0.602;2023-05-22T05:11:33;101703.75;;;16.76;55.36
50356;BME280;36264;51.296;-0.602;2023-05-22T05:13:58;101702.63;;;16.82;55.21
50356;BME280;36264;51.296;-0.602;2023-05-22T05:16:24;101700.69;;;16.87;55.12
50356;BME280;36264;51.296;-0.602;2023-05-22T05:18:50;101699.59;;;16.93;55.01
50356;BME280;36264;51.296;-0.602;2023-05-22T05:21:16;101706.34;;;16.98;55.03
50356;BME280;36264;51.296;-0.602;2023-05-22T05:23:42;101702.63;;;17.04;55.04
50356;BME280;36264;51.296;-0.602;2023-05-22T05:26:07;101704.47;;;17.02;55.10
50356;BME280;36264;51.296;-0.602;2023-05-22T05:28:32;101713.13;;;17.04;55.14
50356;BME280;36264;51.296;-0.602;2023-05-22T05:30:58;101713.94;;;17.05;55.04
50356;BME280;36264;51.296;-0.602;2023-05-22T05:33:23;101719.28;;;17.03;55.31
50356;BME280;36264;51.296;-0.602;2023-05-22T05:35:48;101719.13;;;17.06;55.12
50356;BME280;36264;51.296;-0.602;2023-05-22T05:38:17;101717.03;;;17.14;55.13
50356;BME280;36264;51.296;-0.602;2023-05-22T05:40:43;101716.63;;;17.24;54.93
50356;BME280;36264;51.296;-0.602;2023-05-22T05:43:09;101720.72;;;17.31;54.61
50356;BME280;36264;51.296;-0.602;2023-05-22T05:45:34;101724.75;;;17.38;54.52
50356;BME280;36264;51.296;-0.602;2023-05-22T05:47:59;101722.69;;;17.46;54.40
50356;BME280;36264;51.296;-0.602;2023-05-22T05:50:25;101721.66;;;17.49;54.28
50356;BME280;36264;51.296;-0.602;2023-05-22T05:52:50;101723.13;;;17.56;54.21
50356;BME280;36264;51.296;-0.602;2023-05-22T05:55:16;101725.41;;;17.64;53.79
50356;BME280;36264;51.296;-0.602;2023-05-22T05:57:41;101728.72;;;17.67;54.09
50356;BME280;36264;51.296;-0.602;2023-05-22T06:00:07;101723.53;;;17.66;54.46
50356;BME280;36264;51.296;-0.602;2023-05-22T06:02:35;101718.09;;;17.70;54.17
50356;BME280;36264;51.296;-0.602;2023-05-22T06:05:01;101719.84;;;17.70;53.93
50356;BME280;36264;51.296;-0.602;2023-05-22T06:07:29;101720.63;;;17.72;53.92
50356;BME280;36264;51.296;-0.602;2023-05-22T06:09:54;101723.13;;;17.75;54.15
50356;BME280;36264;51.296;-0.602;2023-05-22T06:12:19;101726.25;;;17.83;53.88
50356;BME280;36264;51.296;-0.602;2023-05-22T06:14:45;101729.59;;;17.87;54.00
50356;BME280;36264;51.296;-0.602;2023-05-22T06:17:10;101732.19;;;17.88;54.00
50356;BME280;36264;51.296;-0.602;2023-05-22T06:19:36;101730.09;;;17.95;53.98
50356;BME280;36264;51.296;-0.602;2023-05-22T06:22:02;101734.03;;;18.05;53.69
50356;BME280;36264;51.296;-0.602;2023-05-22T06:24:27;101738.28;;;18.08;53.46
50356;BME280;36264;51.296;-0.602;2023-05-22T06:26:52;101747.66;;;18.14;53.44
50356;BME280;36264;51.296;-0.602;2023-05-22T06:29:18;101754.41;;;18.19;53.52
50356;BME280;36264;51.296;-0.602;2023-05-22T06:31:43;101754.28;;;18.22;53.37
50356;BME280;36264;51.296;-0.602;2023-05-22T06:34:08;101754.53;;;18.35;53.08
50356;BME280;36264;51.296;-0.602;2023-05-22T06:36:34;101757.66;;;18.43;52.92
50356;BME280;36264;51.296;-0.602;2023-05-22T06:39:00;101754.25;;;18.41;52.96
50356;BME280;36264;51.296;-0.602;2023-05-22T06:41:26;101755.16;;;18.40;53.18
50356;BME280;36264;51.296;-0.602;2023-05-22T06:43:51;101753.38;;;18.41;52.98
50356;BME280;36264;51.296;-0.602;2023-05-22T06:46:16;101756.41;;;18.51;53.07
50356;BME280;36264;51.296;-0.602;2023-05-22T06:48:42;101760.53;;;18.56;52.76
50356;BME280;36264;51.296;-0.602;2023-05-22T06:51:07;101763.66;;;18.64;52.80
50356;BME280;36264;51.296;-0.602;2023-05-22T06:53:35;101767.19;;;18.63;52.68
50356;BME280;36264;51.296;-0.602;2023-05-22T06:56:01;101777.56;;;18.67;52.84
50356;BME280;36264;51.296;-0.602;2023-05-22T06:58:26;101774.50;;;18.76;53.01
50356;BME280;36264;51.296;-0.602;2023-05-22T07:00:51;101783.22;;;18.95;52.54
50356;BME280;36264;51.296;-0.602;2023-05-22T07:03:18;101778.19;;;19.08;52.44
50356;BME280;36264;51.296;-0.602;2023-05-22T07:05:43;101779.03;;;19.26;51.80
50356;BME280;36264;51.296;-0.602;2023-05-22T07:08:09;101783.69;;;19.39;51.25
50356;BME280;36264;51.296;-0.602;2023-05-22T07:10:34;101784.91;;;19.31;51.56
50356;BME280;36264;51.296;-0.602;2023-05-22T07:13:00;101790.81;;;19.36;51.70
50356;BME280;36264;51.296;-0.602;2023-05-22T07:15:25;101792.28;;;19.42;51.87
50356;BME280;36264;51.296;-0.602;2023-05-22T07:17:50;101787.16;;;19.39;51.51
50356;BME280;36264;51.296;-0.602;2023-05-22T07:20:16;101793.66;;;19.49;51.65
50356;BME280;36264;51.296;-0.602;2023-05-22T07:22:41;101798.06;;;19.49;51.35
50356;BME280;36264;51.296;-0.602;2023-05-22T07:25:07;101795.78;;;19.59;51.37
50356;BME280;36264;51.296;-0.602;2023-05-22T07:27:32;101794.88;;;19.60;51.31
50356;BME280;36264;51.296;-0.602;2023-05-22T07:29:58;101792.31;;;19.58;51.10
50356;BME280;36264;51.296;-0.602;2023-05-22T07:32:23;101781.84;;;19.57;50.75
50356;BME280;36264;51.296;-0.602;2023-05-22T07:34:48;101792.44;;;19.72;51.08
50356;BME280;36264;51.296;-0.602;2023-05-22T07:37:14;101786.56;;;19.67;51.10
50356;BME280;36264;51.296;-0.602;2023-05-22T07:39:39;101788.38;;;19.67;50.71
50356;BME280;36264;51.296;-0.602;2023-05-22T07:42:05;101800.06;;;19.79;50.61
50356;BME280;36264;51.296;-0.602;2023-05-22T07:44:31;101790.91;;;19.86;50.80
50356;BME280;36264;51.296;-0.602;2023-05-22T07:46:56;101798.50;;;19.92;50.72
50356;BME280;36264;51.296;-0.602;2023-05-22T07:49:24;101803.00;;;20.06;50.42
50356;BME280;36264;51.296;-0.602;2023-05-22T07:51:50;101802.66;;;20.12;50.28
50356;BME280;36264;51.296;-0.602;2023-05-22T07:54:16;101804.81;;;20.21;49.87
50356;BME280;36264;51.296;-0.602;2023-05-22T07:56:44;101804.13;;;20.34;49.98
50356;BME280;36264;51.296;-0.602;2023-05-22T07:59:10;101813.63;;;20.36;50.21
50356;BME280;36264;51.296;-0.602;2023-05-22T08:01:37;101813.22;;;20.44;49.83
50356;BME280;36264;51.296;-0.602;2023-05-22T08:04:03;101809.66;;;20.45;49.78
50356;BME280;36264;51.296;-0.602;2023-05-22T08:06:29;101817.16;;;20.37;49.67
50356;BME280;36264;51.296;-0.602;2023-05-22T08:08:55;101820.03;;;20.48;49.72
50356;BME280;36264;51.296;-0.602;2023-05-22T08:11:20;101820.22;;;20.45;50.18
50356;BME280;36264;51.296;-0.602;2023-05-22T08:13:46;101826.66;;;20.39;49.75
50356;BME280;36264;51.296;-0.602;2023-05-22T08:16:11;101832.81;;;20.24;49.42
50356;BME280;36264;51.296;-0.602;2023-05-22T08:18:37;101830.75;;;20.13;49.84
50356;BME280;36264;51.296;-0.602;2023-05-22T08:21:02;101836.59;;;20.02;50.08
50356;BME280;36264;51.296;-0.602;2023-05-22T08:23:27;101836.09;;;19.96;50.13
50356;BME280;36264;51.296;-0.602;2023-05-22T08:25:54;101836.84;;;19.98;50.36
50356;BME280;36264;51.296;-0.602;2023-05-22T08:28:20;101827.94;;;20.00;49.96
50356;BME280;36264;51.296;-0.602;2023-05-22T08:30:45;101813.19;;;19.96;49.99
50356;BME280;36264;51.296;-0.602;2023-05-22T08:33:11;101830.75;;;20.13;49.42
50356;BME280;36264;51.296;-0.602;2023-05-22T08:35:36;101834.47;;;20.09;49.68
50356;BME280;36264;51.296;-0.602;2023-05-22T08:38:01;101827.94;;;20.00;49.93
50356;BME280;36264;51.296;-0.602;2023-05-22T08:40:37;101836.50;;;20.04;49.76
50356;BME280;36264;51.296;-0.602;2023-05-22T08:43:06;101838.78;;;19.94;49.65
50356;BME280;36264;51.296;-0.602;2023-05-22T08:45:33;101840.75;;;19.90;49.98
50356;BME280;36264;51.296;-0.602;2023-05-22T08:48:04;101844.47;;;19.86;49.70
50356;BME280;36264;51.296;-0.602;2023-05-22T08:50:33;101855.94;;;19.85;49.89
50356;BME280;36264;51.296;-0.602;2023-05-22T08:53:05;101851.38;;;19.89;49.67
50356;BME280;36264;51.296;-0.602;2023-05-22T08:55:32;101849.59;;;19.89;49.94
50356;BME280;36264;51.296;-0.602;2023-05-22T08:57:58;101851.91;;;19.96;49.67
50356;BME280;36264;51.296;-0.602;2023-05-22T09:00:24;101854.63;;;19.94;49.92
50356;BME280;36264;51.296;-0.602;2023-05-22T09:02:50;101853.22;;;19.87;49.79
50356;BME280;36264;51.296;-0.602;2023-05-22T09:05:16;101852.53;;;19.83;49.64
50356;BME280;36264;51.296;-0.602;2023-05-22T09:07:42;101845.00;;;19.93;49.85
50356;BME280;36264;51.296;-0.602;2023-05-22T09:10:08;101843.41;;;20.06;49.50
50356;BME280;36264;51.296;-0.602;2023-05-22T09:12:33;101847.94;;;20.20;49.18
50356;BME280;36264;51.296;-0.602;2023-05-22T09:15:09;101845.31;;;20.36;48.99
50356;BME280;36264;51.296;-0.602;2023-05-22T09:17:38;101856.16;;;20.48;48.62
50356;BME280;36264;51.296;-0.602;2023-05-22T09:20:04;101852.03;;;20.58;48.79
50356;BME280;36264;51.296;-0.602;2023-05-22T09:22:36;101852.81;;;20.60;48.49
50356;BME280;36264;51.296;-0.602;2023-05-22T09:25:02;101848.09;;;20.67;48.63
50356;BME280;36264;51.296;-0.602;2023-05-22T09:27:28;101851.22;;;20.73;48.24
50356;BME280;36264;51.296;-0.602;2023-05-22T09:29:55;101861.19;;;20.68;48.29
50356;BME280;36264;51.296;-0.602;2023-05-22T09:32:21;101860.63;;;20.61;47.87
50356;BME280;36264;51.296;-0.602;2023-05-22T09:34:46;101866.69;;;20.63;48.39
50356;BME280;36264;51.296;-0.602;2023-05-22T09:37:13;101859.16;;;20.73;48.13
50356;BME280;36264;51.296;-0.602;2023-05-22T09:39:46;101852.56;;;20.80;47.57
50356;BME280;36264;51.296;-0.602;2023-05-22T09:42:14;101857.22;;;21.07;47.44
50356;BME280;36264;51.296;-0.602;2023-05-22T09:44:41;101850.28;;;21.21;47.91
50356;BME280;36264;51.296;-0.602;2023-05-22T09:47:08;101857.00;;;21.26;47.90
50356;BME280;36264;51.296;-0.602;2023-05-22T09:49:41;101859.91;;;21.22;46.97
50356;BME280;36264;51.296;-0.602;2023-05-22T09:52:07;101854.13;;;21.15;47.49
50356;BME280;36264;51.296;-0.602;2023-05-22T09:54:34;101848.88;;;21.29;47.57
50356;BME280;36264;51.296;-0.602;2023-05-22T09:57:00;101854.06;;;21.31;47.70
50356;BME280;36264;51.296;-0.602;2023-05-22T09:59:29;101855.78;;;21.32;47.61
50356;BME280;36264;51.296;-0.602;2023-05-22T10:01:55;101859.31;;;21.16;47.32
50356;BME280;36264;51.296;-0.602;2023-05-22T10:04:22;101851.53;;;20.99;47.78
50356;BME280;36264;51.296;-0.602;2023-05-22T10:06:52;101853.50;;;20.95;47.81
50356;BME280;36264;51.296;-0.602;2023-05-22T10:09:20;101845.06;;;20.89;47.89
50356;BME280;36264;51.296;-0.602;2023-05-22T10:11:49;101848.81;;;20.85;47.90
50356;BME280;36264;51.296;-0.602;2023-05-22T10:14:17;101847.72;;;20.73;48.17
50356;BME280;36264;51.296;-0.602;2023-05-22T10:16:43;101858.34;;;20.71;48.25
50356;BME280;36264;51.296;-0.602;2023-05-22T10:19:10;101858.78;;;20.63;47.93
50356;BME280;36264;51.296;-0.602;2023-05-22T10:21:37;101854.78;;;20.72;47.95
50356;BME280;36264;51.296;-0.602;2023-05-22T10:24:04;101859.28;;;20.86;47.94
50356;BME280;36264;51.296;-0.602;2023-05-22T10:26:30;101858.16;;;21.06;47.63
50356;BME280;36264;51.296;-0.602;2023-05-22T10:29:04;101854.69;;;21.20;47.68
50356;BME280;36264;51.296;-0.602;2023-05-22T10:31:40;101857.47;;;21.33;47.24
50356;BME280;36264;51.296;-0.602;2023-05-22T10:34:11;101856.94;;;21.42;47.29
50356;BME280;36264;51.296;-0.602;2023-05-22T10:39:29;101864.47;;;21.34;47.72
50356;BME280;36264;51.296;-0.602;2023-05-22T10:41:57;101863.19;;;21.41;47.70
50356;BME280;36264;51.296;-0.602;2023-05-22T10:47:09;101869.66;;;21.80;47.67
50356;BME280;36264;51.296;-0.602;2023-05-22T10:49:36;101871.84;;;21.88;47.80
50356;BME280;36264;51.296;-0.602;2023-05-22T10:52:03;101869.03;;;22.05;47.30
50356;BME280;36264;51.296;-0.602;2023-05-22T10:54:42;101869.84;;;22.20;45.97
50356;BME280;36264;51.296;-0.602;2023-05-22T10:57:14;101868.06;;;22.21;45.77
50356;BME280;36264;51.296;-0.602;2023-05-22T10:59:41;101867.44;;;22.17;46.42
50356;BME280;36264;51.296;-0.602;2023-05-22T11:02:20;101860.13;;;22.21;46.07
50356;BME280;36264;51.296;-0.602;2023-05-22T11:04:46;101864.38;;;22.09;46.68
50356;BME280;36264;51.296;-0.602;2023-05-22T11:07:13;101859.06;;;22.23;46.09
50356;BME280;36264;51.296;-0.602;2023-05-22T11:09:43;101854.81;;;22.50;46.06
50356;BME280;36264;51.296;-0.602;2023-05-22T11:17:25;101839.31;;;23.25;45.35
50356;BME280;36264;51.296;-0.602;2023-05-22T11:20:24;101840.81;;;23.55;43.33
50356;BME280;36264;51.296;-0.602;2023-05-22T11:22:59;101823.84;;;23.58;44.42
50356;BME280;36264;51.296;-0.602;2023-05-22T11:25:26;101837.75;;;23.48;45.06
50356;BME280;36264;51.296;-0.602;2023-05-22T11:27:52;101830.41;;;23.52;45.30
50356;BME280;36264;51.296;-0.602;2023-05-22T11:30:18;101831.38;;;23.51;45.07
50356;BME280;36264;51.296;-0.602;2023-05-22T11:32:45;101818.97;;;23.64;44.91
50356;BME280;36264;51.296;-0.602;2023-05-22T11:35:19;101810.28;;;23.88;44.69
50356;BME280;36264;51.296;-0.602;2023-05-22T11:37:45;101817.28;;;23.89;44.86
50356;BME280;36264;51.296;-0.602;2023-05-22T11:40:16;101814.63;;;24.02;44.04
50356;BME280;36264;51.296;-0.602;2023-05-22T11:42:42;101810.22;;;24.14;42.36
50356;BME280;36264;51.296;-0.602;2023-05-22T11:45:07;101816.72;;;24.10;43.75
50356;BME280;36264;51.296;-0.602;2023-05-22T11:47:33;101813.44;;;23.93;44.76
50356;BME280;36264;51.296;-0.602;2023-05-22T11:49:59;101823.75;;;23.98;45.26
50356;BME280;36264;51.296;-0.602;2023-05-22T11:52:30;101816.31;;;23.90;43.34
50356;BME280;36264;51.296;-0.602;2023-05-22T11:54:56;101802.84;;;23.67;44.76
50356;BME280;36264;51.296;-0.602;2023-05-22T11:57:21;101820.56;;;23.80;44.60
50356;BME280;36264;51.296;-0.602;2023-05-22T11:59:47;101816.22;;;23.92;44.61
50356;BME280;36264;51.296;-0.602;2023-05-22T12:02:14;101824.41;;;24.01;44.37
50356;BME280;36264;51.296;-0.602;2023-05-22T12:04:40;101811.09;;;24.14;43.67
50356;BME280;36264;51.296;-0.602;2023-05-22T12:07:06;101829.00;;;24.23;43.68
50356;BME280;36264;51.296;-0.602;2023-05-22T12:09:32;101823.94;;;24.45;43.70
50356;BME280;36264;51.296;-0.602;2023-05-22T12:11:57;101822.38;;;24.66;43.38
50356;BME280;36264;51.296;-0.602;2023-05-22T12:14:25;101823.41;;;24.76;43.78
50356;BME280;36264;51.296;-0.602;2023-05-22T12:16:51;101825.88;;;24.91;43.15
50356;BME280;36264;51.296;-0.602;2023-05-22T12:19:17;101815.41;;;25.01;42.81
50356;BME280;36264;51.296;-0.602;2023-05-22T12:21:43;101821.53;;;25.25;42.73
50356;BME280;36264;51.296;-0.602;2023-05-22T12:24:09;101818.31;;;25.44;42.55
50356;BME280;36264;51.296;-0.602;2023-05-22T12:26:35;101815.78;;;25.43;42.23
50356;BME280;36264;51.296;-0.602;2023-05-22T12:29:02;101813.75;;;25.11;42.70
50356;BME280;36264;51.296;-0.602;2023-05-22T12:31:33;101814.06;;;24.95;42.39
50356;BME280;36264;51.296;-0.602;2023-05-22T12:34:00;101806.81;;;24.62;42.88
50356;BME280;36264;51.296;-0.602;2023-05-22T12:36:37;101810.00;;;24.54;42.22
50356;BME280;36264;51.296;-0.602;2023-05-22T12:39:06;101804.38;;;24.46;43.12
50356;BME280;36264;51.296;-0.602;2023-05-22T12:41:32;101806.34;;;24.31;43.14
50356;BME280;36264;51.296;-0.602;2023-05-22T12:43:57;101819.06;;;24.14;43.11
50356;BME280;36264;51.296;-0.602;2023-05-22T12:46:23;101824.72;;;23.97;43.09
50356;BME280;36264;51.296;-0.602;2023-05-22T12:48:48;101820.34;;;23.83;43.31
50356;BME280;36264;51.296;-0.602;2023-05-22T12:51:13;101826.19;;;23.75;43.46
50356;BME280;36264;51.296;-0.602;2023-05-22T12:53:39;101836.59;;;23.65;43.44
50356;BME280;36264;51.296;-0.602;2023-05-22T12:56:04;101827.03;;;23.50;43.62
50356;BME280;36264;51.296;-0.602;2023-05-22T12:58:30;101836.47;;;23.41;43.68
50356;BME280;36264;51.296;-0.602;2023-05-22T13:00:55;101843.47;;;23.55;43.05
50356;BME280;36264;51.296;-0.602;2023-05-22T13:03:21;101838.41;;;23.65;43.02
50356;BME280;36264;51.296;-0.602;2023-05-22T13:05:46;101839.16;;;23.93;43.15